Main page
METAR-TAF:

METAR-TAF

Airports :

Forlì Airport

Forlì, Italy

latitude: 44-12N, longitude: 012-04E, elevation: 27 m

Current weather observation

The report was made 53 minutes ago, at 15:50 UTC
Wind 5 kt from the East/Northeast
Temperature 29°C
Humidity 52%
Pressure 1018 hPa
Visibility 10 km or more
no clouds below 1500 m and no cumulonimbus

METAR: LIPK 201550Z 06005KT CAVOK 29/18 Q1018

Time: 18:43 (16:43 UTC)


TAF: missing

Weather observations and forecasts of more than 4000 airports (METAR and TAF reports).

The available stations are represented by yellow and red dots on the map.

Hover mouse over dot to see the name of the station.

Then click to see weather observations and forecasts.

To change the map : click on the green buttons with a black cross to zoom in, on the green button with a dash to zoom out, or on the green arrows for adjacent maps.


METAR-TAF: